EST,Max TemperatureF,Mean TemperatureF,Min TemperatureF,Max Dew PointF,MeanDew PointF,Min DewpointF,Max Humidity, Mean Humidity, Min Humidity, Max Sea Level PressureIn, Mean Sea Level PressureIn, Min Sea Level PressureIn, Max VisibilityMiles, Mean VisibilityMiles, Min VisibilityMiles, Max Wind SpeedMPH, Mean Wind SpeedMPH, Max Gust SpeedMPH,PrecipitationIn, CloudCover, Events, WindDirDegrees
2013-1-1,55,50,44,52,47,37,94,83,67,30.15,30.06,29.97,10,10,5,14,7,21,0.01,7,,226
2013-1-2,53,48,42,52,45,37,100,89,81,30.22,30.05,29.91,10,8,2,15,5,18,0.38,8,,8
2013-1-3,42,36,30,37,34,28,93,83,70,30.27,30.20,30.15,10,8,4,9,5,,0.03,4,,20
2013-1-4,50,38,26,34,28,25,100,72,40,30.33,30.27,30.21,10,8,2,10,2,16,0.00,1,,265
2013-1-5,51,38,24,34,28,21,93,72,35,30.41,30.33,30.28,10,10,10,7,1,,0.00,0,,234
2013-1-6,46,42,39,45,40,32,100,86,70,30.30,30.19,30.09,10,8,2,7,2,,0.01,7,,251
2013-1-7,53,42,32,41,34,30,93,75,41,30.46,30.35,30.17,10,9,2,14,3,18,0.00,0,,32
2013-1-8,64,48,33,50,39,30,93,79,56,30.46,30.40,30.36,10,9,1,9,4,,0.00,3,,34
2013-1-9,71,54,37,57,48,36,100,84,57,30.44,30.39,30.37,10,8,1,6,1,,0.00,1,,9
2013-1-10,66,55,44,52,43,36,100,69,39,30.52,30.46,30.41,10,8,0,14,4,18,0.00,0,,57
2013-1-11,71,58,44,64,52,34,100,84,62,30.45,30.28,30.16,10,8,0,14,6,17,0.14,5,,101
2013-1-12,73,64,55,64,60,54,100,89,69,30.19,30.14,30.11,10,6,0,8,5,,0.00,2,,237
2013-1-13,75,63,51,63,57,50,100,87,57,30.18,30.14,30.10,10,6,0,14,3,20,0.00,2,,205
2013-1-14,77,64,51,64,58,52,100,83,54,30.20,30.16,30.12,10,8,0,18,7,24,0.00,1,,201
2013-1-15,62,56,51,59,55,50,94,91,77,30.20,30.15,30.08,10,4,0,12,6,,0.00,7,,43
2013-1-16,78,66,53,64,58,52,100,86,54,30.08,30.02,29.95,10,8,0,18,5,28,0.00,5,,212
2013-1-17,59,50,41,59,51,37,100,94,87,30.01,29.94,29.80,10,4,0,23,6,34,0.69,7,,21
2013-1-18,48,38,28,37,31,25,93,75,40,30.54,30.38,30.00,10,10,5,14,7,22,0.02,3,,349
2013-1-19,59,42,26,43,32,25,93,74,38,30.52,30.39,30.21,10,10,8,7,1,,0.00,1,,205
2013-1-20,64,50,35,45,37,32,93,71,30,30.19,30.10,30.00,10,9,5,14,4,21,0.00,0,,243
2013-1-21,64,47,30,41,35,28,93,67,36,30.09,30.00,29.89,10,10,10,16,3,21,0.00,0,,210
2013-1-22,48,36,24,30,15,7,74,43,23,30.29,30.15,29.97,10,10,10,12,5,18,0.00,0,,313
2013-1-23,41,31,21,21,11,3,74,48,24,30.41,30.30,30.13,10,10,10,10,4,20,0.00,0,,305
2013-1-24,39,30,21,32,18,5,87,55,34,30.52,30.26,30.00,10,10,10,22,8,29,0.00,0,,346
2013-1-25,35,26,17,28,18,9,93,70,44,30.54,30.34,30.14,10,8,2,8,2,,0.17,4,,41
2013-1-26,37,32,26,34,27,25,93,88,75,30.40,30.24,30.13,8,5,2,9,1,,0.01,4,,11
2013-1-27,41,34,26,28,26,23,93,79,52,30.60,30.53,30.40,10,7,2,15,6,21,0.00,3,,23
2013-1-28,59,42,26,54,38,23,100,80,59,30.53,30.40,30.28,10,9,1,12,3,,0.01,6,,216
2013-1-29,73,60,48,57,53,46,100,80,53,30.27,30.20,30.13,10,8,0,14,7,20,0.00,1,,236
2013-1-30,75,66,57,63,61,55,94,81,65,30.16,29.91,29.59,10,9,4,31,14,45,0.00,4,,185
2013-1-31,69,52,35,64,36,21,94,59,28,30.07,29.83,29.51,10,10,4,33,18,45,0.26,2,,224